Time;durP1;ratioP1;P1;durP2;ratioP2;P2;SDS_P1;SDS_P2;PMS_P1;PMS_P2;Temp;Humidity;BMP_temperature;BMP_pressure;BME280_temperature;BME280_humidity;BME280_pressure;Samples;Min_cycle;Max_cycle;Signal;HPM_P1;HPM_P2
2022/07/12 00:02:13;;;;;;;10.25;7.05;;;;;;;14.68;95.91;102348.56;5004749;28;20281;-66
2022/07/12 00:04:38;;;;;;;10.98;7.40;;;;;;;14.69;96.52;102350.25;4993485;28;20384;-66
2022/07/12 00:07:03;;;;;;;10.45;7.20;;;;;;;14.70;96.04;102347.28;4986680;28;20057;-66
2022/07/12 00:09:28;;;;;;;10.63;7.63;;;;;;;14.67;96.67;102353.25;4991806;28;20065;-66
2022/07/12 00:11:55;;;;;;;10.98;8.43;;;;;;;14.66;97.13;102336.88;4993591;28;20042;-67
2022/07/12 00:14:20;;;;;;;12.50;8.77;;;;;;;14.66;96.86;102339.66;4986996;28;20030;-66
2022/07/12 00:16:46;;;;;;;12.55;8.85;;;;;;;14.64;96.99;102350.91;4985838;28;20465;-67
2022/07/12 00:19:11;;;;;;;12.50;8.65;;;;;;;14.61;97.26;102347.75;4990047;28;20372;-66
2022/07/12 00:21:36;;;;;;;9.77;7.05;;;;;;;14.59;97.00;102344.34;4984964;28;20754;-66
2022/07/12 00:24:02;;;;;;;13.52;7.35;;;;;;;14.55;96.59;102343.97;4986375;28;20057;-66
2022/07/12 00:26:27;;;;;;;11.18;6.75;;;;;;;14.49;96.64;102342.91;4999343;28;20083;-66
2022/07/12 00:28:52;;;;;;;10.50;6.20;;;;;;;14.41;96.60;102348.66;4994133;28;20022;-67
2022/07/12 00:31:18;;;;;;;9.88;6.78;;;;;;;14.38;97.01;102345.50;4984735;28;20458;-66
2022/07/12 00:33:43;;;;;;;12.05;8.00;;;;;;;14.34;97.02;102342.31;4988296;28;20172;-66
2022/07/12 00:36:08;;;;;;;13.65;9.18;;;;;;;14.33;97.38;102334.25;5005305;28;20069;-66
2022/07/12 00:38:34;;;;;;;14.38;10.02;;;;;;;14.31;97.57;102331.72;5006336;28;20531;-66
2022/07/12 00:40:59;;;;;;;15.20;10.90;;;;;;;14.29;98.11;102328.28;4989673;28;20025;-66
2022/07/12 00:43:25;;;;;;;16.48;9.80;;;;;;;14.27;97.70;102324.91;4985370;28;20089;-66
2022/07/12 00:45:50;;;;;;;14.20;10.50;;;;;;;14.33;98.05;102328.72;4990902;28;20029;-66
2022/07/12 00:48:17;;;;;;;16.05;11.35;;;;;;;14.34;98.60;102328.47;5001930;28;20053;-66
2022/07/12 00:50:44;;;;;;;13.82;9.95;;;;;;;14.34;97.78;102331.25;5005822;28;20034;-66
2022/07/12 00:53:10;;;;;;;13.75;9.82;;;;;;;14.40;97.37;102340.59;5004428;28;20100;-66
2022/07/12 00:55:35;;;;;;;16.42;9.18;;;;;;;14.39;97.13;102328.66;4990493;28;20038;-66
2022/07/12 00:58:00;;;;;;;14.02;9.77;;;;;;;14.38;96.82;102332.50;4985777;28;20109;-66
2022/07/12 01:00:28;;;;;;;14.23;9.50;;;;;;;14.36;97.24;102329.13;4984715;28;20033;-66
2022/07/12 01:02:59;;;;;;;17.00;9.70;;;;;;;14.37;97.62;102335.50;4998180;28;20040;-66
2022/07/12 01:05:27;;;;;;;12.80;9.63;;;;;;;14.35;97.55;102330.22;4983653;28;20115;-67
2022/07/12 01:07:54;;;;;;;16.83;10.18;;;;;;;14.38;97.85;102340.81;4992504;28;20037;-66
2022/07/12 01:10:19;;;;;;;14.27;9.80;;;;;;;14.38;97.65;102340.81;4986229;28;20037;-66
2022/07/12 01:12:45;;;;;;;15.75;11.00;;;;;;;14.37;97.46;102344.63;5004907;22;20045;-66
2022/07/12 01:15:10;;;;;;;13.15;9.70;;;;;;;14.33;97.23;102340.63;4984738;28;20049;-66
2022/07/12 01:17:36;;;;;;;11.27;8.70;;;;;;;14.26;96.66;102339.81;4985948;28;20022;-66
2022/07/12 01:20:04;;;;;;;13.45;8.90;;;;;;;14.21;96.64;102342.38;4999798;28;20030;-66
2022/07/12 01:22:33;;;;;;;14.32;8.63;;;;;;;14.12;96.45;102336.25;5004281;28;20160;-66
2022/07/12 01:25:00;;;;;;;9.70;6.93;;;;;;;14.14;96.55;102347.94;5005496;28;20025;-67
2022/07/12 01:27:26;;;;;;;11.83;8.13;;;;;;;14.10;95.96;102351.34;5005907;28;20114;-66
2022/07/12 01:29:52;;;;;;;11.65;8.38;;;;;;;14.05;96.28;102352.00;5003905;28;20779;-67
2022/07/12 01:32:26;;;;;;;12.40;8.85;;;;;;;13.98;95.97;102349.22;5004483;28;20041;-67
2022/07/12 01:35:00;;;;;;;14.23;8.90;;;;;;;13.98;96.72;102356.69;5004993;28;20037;-67
2022/07/12 01:37:35;;;;;;;16.23;10.98;;;;;;;13.97;97.56;102355.84;5004697;28;20156;-66
2022/07/12 01:40:01;;;;;;;15.98;10.10;;;;;;;13.92;97.39;102361.16;5002885;28;20644;-66
2022/07/12 01:42:29;;;;;;;14.48;10.20;;;;;;;13.89;97.25;102357.97;5004863;28;20026;-67
2022/07/12 01:44:55;;;;;;;14.55;10.05;;;;;;;13.89;97.35;102366.25;5001855;28;20030;-67
2022/07/12 01:47:23;;;;;;;11.68;7.63;;;;;;;13.85;97.48;102362.25;5004505;28;20377;-67
2022/07/12 01:49:48;;;;;;;10.93;7.55;;;;;;;13.77;97.70;102355.88;5003432;28;20026;-67
2022/07/12 01:52:14;;;;;;;13.73;8.25;;;;;;;13.75;98.21;102365.44;5004078;28;20030;-67
2022/07/12 01:54:40;;;;;;;11.23;7.85;;;;;;;13.67;98.35;102355.47;5003865;28;20030;-66
2022/07/12 01:57:06;;;;;;;10.57;6.78;;;;;;;13.61;97.80;102359.09;5005288;28;20037;-67
2022/07/12 01:59:32;;;;;;;11.82;7.80;;;;;;;13.59;97.83;102358.47;5004805;28;20344;-67
2022/07/12 02:01:58;;;;;;;14.15;8.77;;;;;;;13.54;97.63;102354.66;4998926;28;20030;-66
2022/07/12 02:04:24;;;;;;;12.35;8.45;;;;;;;13.49;97.69;102353.38;5003579;28;20234;-66
2022/07/12 02:06:50;;;;;;;12.35;7.85;;;;;;;13.46;97.91;102355.69;5004255;28;20123;-67
2022/07/12 02:09:16;;;;;;;12.13;7.60;;;;;;;13.42;97.71;102347.00;5004854;28;20037;-66
2022/07/12 02:11:42;;;;;;;12.23;7.70;;;;;;;13.40;98.04;102346.38;5004608;28;20030;-67
2022/07/12 02:14:09;;;;;;;11.35;8.00;;;;;;;13.39;98.42;102343.81;5001805;28;20053;-66
2022/07/12 02:16:34;;;;;;;13.30;8.13;;;;;;;13.39;98.64;102349.34;5003755;28;20030;-66
2022/07/12 02:19:00;;;;;;;16.02;11.35;;;;;;;13.36;98.82;102338.72;5003779;28;20037;-67
2022/07/12 02:21:26;;;;;;;13.13;9.55;;;;;;;13.34;98.72;102336.19;5004589;28;20626;-66
2022/07/12 02:23:51;;;;;;;14.20;9.93;;;;;;;13.37;99.30;102335.75;5004654;28;20057;-67
2022/07/12 02:26:16;;;;;;;14.45;8.95;;;;;;;13.36;98.82;102339.56;5003567;28;20071;-67
2022/07/12 02:28:42;;;;;;;14.20;9.25;;;;;;;13.33;98.33;102337.25;5006995;28;20038;-67
2022/07/12 02:31:08;;;;;;;12.50;9.20;;;;;;;13.32;98.79;102338.28;5007001;28;20384;-67
2022/07/12 02:33:33;;;;;;;12.40;8.02;;;;;;;13.30;98.61;102334.91;5008170;28;20030;-67
2022/07/12 02:35:59;;;;;;;14.32;9.60;;;;;;;13.28;98.92;102331.53;5008303;28;20030;-66
2022/07/12 02:38:24;;;;;;;14.40;11.57;;;;;;;13.26;98.96;102333.63;5005759;28;20495;-67
2022/07/12 02:40:55;;;;;;;21.52;15.68;;;;;;;13.26;99.30;102330.03;5007495;28;20030;-67
2022/07/12 02:43:29;;;;;;;21.30;15.95;;;;;;;13.26;99.95;102333.63;5008275;28;20045;-67
2022/07/12 02:46:01;;;;;;;19.92;16.30;;;;;;;13.28;99.38;102338.91;5005535;28;20486;-67
2022/07/12 02:48:27;;;;;;;21.10;16.23;;;;;;;13.27;99.21;102340.84;5007228;28;20125;-67
2022/07/12 02:50:52;;;;;;;18.15;13.68;;;;;;;13.26;98.86;102341.06;5006297;28;20057;-67
2022/07/12 02:53:17;;;;;;;15.25;10.07;;;;;;;13.20;98.30;102345.50;5008173;28;20547;-67
2022/07/12 02:55:43;;;;;;;12.38;8.77;;;;;;;13.17;98.63;102343.13;5007191;28;20030;-67
2022/07/12 02:58:08;;;;;;;15.93;9.20;;;;;;;13.13;98.48;102341.88;5007060;28;20469;-67
2022/07/12 03:00:34;;;;;;;17.42;10.75;;;;;;;13.09;98.69;102340.59;5005191;28;20048;-67
2022/07/12 03:03:03;;;;;;;16.40;10.15;;;;;;;13.04;98.61;102348.66;5007119;28;20034;-67
2022/07/12 03:05:29;;;;;;;16.83;12.02;;;;;;;12.99;98.79;102349.28;5007887;28;20068;-67
2022/07/12 03:07:54;;;;;;;16.20;11.93;;;;;;;12.96;98.95;102339.50;5007749;28;20100;-67
2022/07/12 03:10:19;;;;;;;18.73;12.27;;;;;;;12.96;98.88;102345.03;5007019;28;20045;-67
2022/07/12 03:12:45;;;;;;;20.80;14.15;;;;;;;12.94;99.30;102344.41;5007394;28;20018;-67
2022/07/12 03:15:11;;;;;;;19.92;14.00;;;;;;;12.94;99.24;102346.31;5005426;28;20590;-67
2022/07/12 03:17:37;;;;;;;20.63;15.27;;;;;;;12.93;99.79;102341.88;5007548;28;20080;-67
2022/07/12 03:20:08;;;;;;;23.13;17.80;;;;;;;12.92;99.81;102343.75;5006635;28;20034;-67
2022/07/12 03:22:34;;;;;;;17.45;12.65;;;;;;;12.93;99.23;102339.09;5007016;28;20033;-67
2022/07/12 03:24:59;;;;;;;15.57;12.00;;;;;;;12.94;99.64;102344.41;5006442;28;20383;-67
2022/07/12 03:27:25;;;;;;;19.07;13.70;;;;;;;12.94;99.32;102338.88;5007237;28;20136;-67
2022/07/12 03:29:50;;;;;;;18.08;13.30;;;;;;;12.90;99.09;102339.50;5006627;28;20273;-67
2022/07/12 03:32:16;;;;;;;19.02;13.63;;;;;;;12.90;99.56;102342.28;5005973;28;20030;-67
2022/07/12 03:34:41;;;;;;;21.08;15.02;;;;;;;12.88;99.41;102339.72;5004148;28;20049;-67
2022/07/12 03:37:06;;;;;;;22.20;15.02;;;;;;;12.85;99.21;102334.63;5006881;28;20038;-67
2022/07/12 03:39:31;;;;;;;22.23;16.38;;;;;;;12.86;99.49;102333.56;5005255;28;20034;-67
2022/07/12 03:41:57;;;;;;;21.95;16.05;;;;;;;12.87;100.00;102335.25;5006492;28;20034;-67
2022/07/12 03:44:22;;;;;;;20.58;14.50;;;;;;;12.87;99.98;102337.16;5006448;28;20030;-67
2022/07/12 03:46:48;;;;;;;17.92;13.80;;;;;;;12.91;100.00;102344.81;5003681;28;20026;-67
2022/07/12 03:49:14;;;;;;;18.92;14.68;;;;;;;12.93;99.62;102342.72;5007222;28;20032;-67
2022/07/12 03:51:39;;;;;;;22.23;13.77;;;;;;;12.93;99.18;102339.09;5006468;28;20033;-67
2022/07/12 03:54:07;;;;;;;17.27;12.68;;;;;;;12.94;98.56;102338.03;5005191;28;20026;-67
2022/07/12 03:59:16;;;;;;;20.33;13.55;;;;;;;12.95;98.78;102337.81;5016890;28;20128;-68
2022/07/12 04:01:43;;;;;;;18.60;13.38;;;;;;;12.92;98.15;102340.13;5004411;28;20100;-67
2022/07/12 04:04:08;;;;;;;14.85;11.35;;;;;;;12.86;97.70;102340.97;5006351;28;20125;-67
2022/07/12 04:06:33;;;;;;;17.83;13.18;;;;;;;12.84;98.12;102334.84;5004072;28;20038;-67
2022/07/12 04:08:58;;;;;;;19.75;12.48;;;;;;;12.84;98.88;102334.84;5005104;28;20038;-67
2022/07/12 04:11:24;;;;;;;20.35;12.85;;;;;;;12.84;99.02;102332.94;5005922;28;20018;-67
2022/07/12 04:13:49;;;;;;;18.33;12.48;;;;;;;12.86;99.22;102340.97;5006195;28;20038;-67
2022/07/12 04:16:14;;;;;;;20.30;14.70;;;;;;;12.89;99.56;102329.53;5004151;28;20084;-67
2022/07/12 04:18:39;;;;;;;22.15;15.07;;;;;;;12.92;99.71;102338.22;5005532;28;20034;-67
2022/07/12 04:21:05;;;;;;;19.45;12.80;;;;;;;12.95;99.75;102335.06;5005994;28;20592;-67
2022/07/12 04:23:30;;;;;;;15.38;11.48;;;;;;;12.96;99.51;102344.19;5005413;28;20121;-65
2022/07/12 04:25:55;;;;;;;17.42;11.00;;;;;;;13.02;99.79;102348.84;5006307;28;20057;-67
2022/07/12 04:28:21;;;;;;;18.50;11.75;;;;;;;13.06;99.00;102357.56;5004544;28;20038;-67
2022/07/12 04:30:46;;;;;;;20.23;13.43;;;;;;;13.19;99.72;102355.69;5004889;28;20083;-67
2022/07/12 04:33:12;;;;;;;18.08;13.73;;;;;;;13.56;98.84;102363.56;5006116;28;20033;-67
2022/07/12 04:35:37;;;;;;;18.27;13.02;;;;;;;13.86;96.50;102361.19;5006455;28;20156;-67
2022/07/12 04:38:03;;;;;;;18.02;13.23;;;;;;;14.02;94.35;102358.78;5003527;28;20091;-67
2022/07/12 04:40:30;;;;;;;20.10;13.40;;;;;;;13.94;94.50;102364.56;5005077;28;20464;-67
2022/07/12 04:42:55;;;;;;;26.10;14.98;;;;;;;13.87;95.01;102365.63;5005153;28;20132;-67
2022/07/12 04:45:21;;;;;;;22.35;15.30;;;;;;;13.80;95.28;102365.66;5004304;28;20042;-67
2022/07/12 04:47:46;;;;;;;19.88;14.48;;;;;;;13.78;96.58;102353.97;5004572;28;20026;-67
2022/07/12 04:50:11;;;;;;;25.17;14.93;;;;;;;13.72;97.37;102349.31;5004989;28;20504;-67
2022/07/12 04:52:37;;;;;;;21.88;14.48;;;;;;;13.68;98.10;102351.63;5005408;28;20054;-66
2022/07/12 04:55:02;;;;;;;16.15;13.32;;;;;;;13.68;98.39;102362.69;5005109;28;20030;-68
2022/07/12 04:57:28;;;;;;;20.10;13.95;;;;;;;13.67;98.47;102358.22;5005195;28;20618;-68
2022/07/12 04:59:53;;;;;;;18.45;14.15;;;;;;;13.67;98.21;102349.94;5004511;28;20057;-68
2022/07/12 05:02:18;;;;;;;22.93;14.30;;;;;;;13.69;98.81;102349.75;5004280;28;20014;-68
2022/07/12 05:04:44;;;;;;;21.08;14.55;;;;;;;13.73;99.23;102353.75;5005597;28;20512;-67
2022/07/12 05:07:09;;;;;;;19.25;15.38;;;;;;;13.78;99.73;102353.97;5005455;28;20018;-68
2022/07/12 05:09:34;;;;;;;20.95;14.25;;;;;;;13.83;99.59;102351.41;5005930;28;20030;-68
2022/07/12 05:12:00;;;;;;;21.55;13.23;;;;;;;13.90;99.24;102365.22;5002037;28;20097;-68
2022/07/12 05:14:25;;;;;;;21.52;15.43;;;;;;;13.95;99.55;102374.53;5003465;28;20250;-68
2022/07/12 05:16:50;;;;;;;24.00;17.17;;;;;;;14.02;99.52;102375.38;5002940;28;20026;-68
2022/07/12 05:19:16;;;;;;;23.75;18.05;;;;;;;14.11;99.86;102377.91;5002657;28;20030;-68
2022/07/12 05:21:42;;;;;;;28.38;21.90;;;;;;;14.25;100.00;102379.56;5002649;28;20117;-68
2022/07/12 05:24:07;;;;;;;26.25;20.60;;;;;;;14.34;100.00;102374.63;5004358;28;20388;-68
2022/07/12 05:26:33;;;;;;;31.17;25.08;;;;;;;14.44;100.00;102392.44;5004983;28;20025;-68
2022/07/12 05:28:59;;;;;;;33.45;26.92;;;;;;;14.55;100.00;102382.66;5004354;28;20025;-68
2022/07/12 05:31:25;;;;;;;37.40;27.30;;;;;;;14.73;100.00;102385.53;5003949;28;20034;-68
2022/07/12 05:33:50;;;;;;;31.88;25.83;;;;;;;14.80;100.00;102391.06;5000571;28;20057;-68
2022/07/12 05:36:16;;;;;;;30.92;25.58;;;;;;;14.88;100.00;102393.53;5005475;28;20033;-68
2022/07/12 05:38:41;;;;;;;34.90;27.08;;;;;;;15.01;100.00;102387.09;5004648;28;20528;-68
2022/07/12 05:41:06;;;;;;;33.08;27.42;;;;;;;15.04;100.00;102395.78;5004255;28;20034;-68
2022/07/12 05:43:31;;;;;;;32.95;26.70;;;;;;;15.17;100.00;102394.00;5004477;28;20038;-68
2022/07/12 05:45:57;;;;;;;35.53;27.95;;;;;;;15.31;100.00;102410.31;5002623;28;20088;-68
2022/07/12 05:48:22;;;;;;;37.25;28.23;;;;;;;15.42;100.00;102411.50;5005544;28;20041;-68
2022/07/12 05:50:48;;;;;;;34.33;27.98;;;;;;;15.51;100.00;102415.69;5002305;28;20116;-68
2022/07/12 05:53:22;;;;;;;36.88;29.73;;;;;;;15.70;100.00;102426.84;5004851;28;20033;-68
2022/07/12 05:55:50;;;;;;;40.30;30.67;;;;;;;15.84;100.00;102431.19;4997818;28;20029;-68
2022/07/12 05:58:15;;;;;;;36.05;28.40;;;;;;;15.91;100.00;102415.34;5002757;28;20022;-68
2022/07/12 06:00:40;;;;;;;39.08;29.88;;;;;;;15.99;100.00;102423.38;5003923;28;20358;-68
2022/07/12 06:03:05;;;;;;;38.47;29.25;;;;;;;16.08;100.00;102422.00;5006786;28;20353;-68
2022/07/12 06:05:31;;;;;;;39.97;32.85;;;;;;;16.20;100.00;102432.34;5008213;28;20022;-68
2022/07/12 06:07:57;;;;;;;41.20;31.38;;;;;;;16.23;100.00;102429.13;5006975;28;20041;-68
2022/07/12 06:10:22;;;;;;;36.70;30.75;;;;;;;16.33;99.21;102438.59;5006369;28;20034;-69
2022/07/12 06:12:47;;;;;;;32.40;28.65;;;;;;;16.44;97.49;102436.13;5005198;28;20025;-69
2022/07/12 06:15:12;;;;;;;31.67;28.30;;;;;;;16.49;96.24;102437.13;5006458;28;20030;-68
2022/07/12 06:17:39;;;;;;;35.00;30.20;;;;;;;16.56;97.63;102439.81;5008061;28;20281;-68
2022/07/12 06:20:04;;;;;;;35.42;31.60;;;;;;;16.65;97.73;102441.19;5007340;28;20030;-68
2022/07/12 06:22:30;;;;;;;34.65;31.13;;;;;;;16.77;96.10;102435.72;5007360;28;20026;-68
2022/07/12 06:24:55;;;;;;;34.83;31.15;;;;;;;16.89;96.04;102438.59;5007170;28;20111;-69
2022/07/12 06:27:20;;;;;;;34.60;30.92;;;;;;;17.02;95.52;102436.44;5003455;28;20034;-68
2022/07/12 06:29:47;;;;;;;34.80;31.08;;;;;;;17.15;96.74;102434.59;5008491;28;20021;-68
2022/07/12 06:32:15;;;;;;;35.83;31.80;;;;;;;17.28;96.74;102424.09;5008272;28;20034;-68
2022/07/12 06:34:40;;;;;;;40.73;33.00;;;;;;;17.38;96.37;102427.16;5007942;28;20693;-68
2022/07/12 06:37:08;;;;;;;35.30;31.60;;;;;;;17.48;95.07;102426.56;5006585;28;20600;-68
2022/07/12 06:39:33;;;;;;;37.47;33.42;;;;;;;17.53;95.08;102418.38;5007211;28;20299;-68
2022/07/12 06:41:58;;;;;;;36.15;30.45;;;;;;;17.60;94.29;102430.25;5006528;28;20691;-68
2022/07/12 06:44:24;;;;;;;34.83;31.13;;;;;;;17.68;93.58;102433.72;5004215;28;20137;-67
2022/07/12 06:46:49;;;;;;;34.47;30.80;;;;;;;17.78;92.98;102431.25;5005415;28;20057;-67
2022/07/12 06:49:14;;;;;;;34.08;30.35;;;;;;;17.87;92.31;102419.53;5007299;28;20491;-67
2022/07/12 06:51:39;;;;;;;33.42;29.85;;;;;;;17.96;91.19;102433.06;5008158;28;20061;-67
2022/07/12 06:54:05;;;;;;;31.83;28.63;;;;;;;18.05;91.47;102426.91;5007688;28;20572;-67
2022/07/12 06:56:30;;;;;;;34.78;31.08;;;;;;;18.12;90.71;102427.63;5003720;28;20702;-67
2022/07/12 06:58:55;;;;;;;36.47;32.67;;;;;;;18.18;90.85;102425.81;5006477;28;20050;-67
2022/07/12 07:01:21;;;;;;;36.35;31.63;;;;;;;18.33;92.11;102430.88;5004473;28;20289;-67
2022/07/12 07:03:46;;;;;;;40.15;32.28;;;;;;;18.41;90.42;102433.28;5007076;28;20041;-69
2022/07/12 07:06:11;;;;;;;36.60;31.52;;;;;;;18.56;89.83;102439.19;5007119;28;20010;-67
2022/07/12 07:08:37;;;;;;;39.15;32.00;;;;;;;18.70;89.65;102427.78;5007374;28;20022;-67
2022/07/12 07:11:02;;;;;;;34.05;29.23;;;;;;;18.82;88.04;102434.19;5006934;28;20092;-67
2022/07/12 07:13:27;;;;;;;34.88;31.10;;;;;;;18.95;89.13;102428.31;5006809;28;20760;-67
2022/07/12 07:15:53;;;;;;;30.08;25.98;;;;;;;19.04;87.98;102437.94;5004262;28;20030;-67
2022/07/12 07:18:18;;;;;;;29.23;25.33;;;;;;;19.26;86.51;102431.66;5004479;28;20392;-67
2022/07/12 07:20:43;;;;;;;29.17;24.27;;;;;;;19.40;84.19;102431.09;5007244;28;20034;-67
2022/07/12 07:23:10;;;;;;;23.38;20.25;;;;;;;19.41;81.86;102435.59;5007129;28;20139;-67
2022/07/12 07:25:35;;;;;;;24.95;22.35;;;;;;;19.48;84.81;102434.59;5006222;28;20056;-67
2022/07/12 07:28:00;;;;;;;23.65;20.80;;;;;;;19.63;84.17;102432.94;5006789;28;20380;-67
2022/07/12 07:33:10;;;;;;;25.40;20.00;;;;;;;19.81;82.01;102428.19;5005453;28;20501;-67
2022/07/12 07:35:35;;;;;;;24.70;19.55;;;;;;;20.00;78.93;102432.41;5006743;28;20030;-67
2022/07/12 07:38:00;;;;;;;19.35;16.73;;;;;;;20.12;77.23;102430.38;5006483;28;20045;-66
2022/07/12 07:40:26;;;;;;;20.15;17.98;;;;;;;20.26;77.74;102424.41;5005740;28;20113;-67
2022/07/12 07:42:51;;;;;;;20.67;17.38;;;;;;;20.27;76.53;102418.56;5006205;28;20038;-68
2022/07/12 07:45:16;;;;;;;22.77;17.70;;;;;;;20.40;78.30;102422.94;5004647;28;20041;-67
2022/07/12 07:47:45;;;;;;;18.95;16.67;;;;;;;20.49;77.21;102426.16;5007057;28;20014;-66
2022/07/12 07:50:11;;;;;;;16.27;13.93;;;;;;;20.51;74.09;102426.75;5006650;28;20124;-66
2022/07/12 07:52:36;;;;;;;15.55;13.52;;;;;;;20.58;74.18;102417.09;5005681;28;20129;-66
2022/07/12 07:55:01;;;;;;;17.80;15.10;;;;;;;20.68;74.07;102413.56;5006259;28;20041;-66
2022/07/12 07:57:27;;;;;;;16.65;14.20;;;;;;;20.70;72.65;102416.94;5004188;28;20396;-66
2022/07/12 07:59:52;;;;;;;17.63;15.43;;;;;;;20.78;73.71;102419.25;5004211;28;20038;-68
2022/07/12 08:02:17;;;;;;;17.53;15.63;;;;;;;20.95;72.83;102421.97;5003813;28;20022;-68
2022/07/12 08:04:42;;;;;;;18.43;14.67;;;;;;;21.13;74.50;102416.03;5005291;28;20303;-67
2022/07/12 08:07:08;;;;;;;16.30;13.50;;;;;;;21.28;71.97;102420.91;5005750;28;20312;-67
2022/07/12 08:09:33;;;;;;;18.50;13.65;;;;;;;21.44;71.14;102420.00;5000150;28;20978;-68
2022/07/12 08:11:58;;;;;;;19.40;15.20;;;;;;;21.48;70.20;102417.50;4996661;28;20128;-67
2022/07/12 08:14:24;;;;;;;15.95;13.48;;;;;;;21.65;70.63;102418.22;5001193;28;20049;-67
2022/07/12 08:16:49;;;;;;;15.68;11.95;;;;;;;21.79;72.05;102423.34;5001225;28;20436;-67
2022/07/12 08:19:14;;;;;;;14.90;11.43;;;;;;;21.98;69.52;102425.47;5006771;28;20026;-67
2022/07/12 08:21:40;;;;;;;21.73;16.47;;;;;;;22.01;67.16;102422.13;5002820;28;20030;-68
2022/07/12 08:24:05;;;;;;;18.48;16.13;;;;;;;22.01;66.67;102424.09;4999489;28;20292;-67
2022/07/12 08:26:31;;;;;;;16.23;13.35;;;;;;;22.13;69.97;102426.72;5002205;28;20033;-68
2022/07/12 08:28:56;;;;;;;19.98;16.88;;;;;;;22.03;66.32;102424.66;4999068;28;20054;-67
2022/07/12 08:31:21;;;;;;;17.87;15.07;;;;;;;22.06;67.46;102428.88;5001105;28;20393;-68
2022/07/12 08:33:47;;;;;;;20.52;16.25;;;;;;;22.14;67.65;102426.44;4999590;28;20339;-68
2022/07/12 08:36:12;;;;;;;20.67;17.00;;;;;;;22.19;67.09;102437.66;4998826;28;20077;-67
2022/07/12 08:38:38;;;;;;;20.65;17.52;;;;;;;22.27;65.38;102427.91;5000617;28;20433;-67
2022/07/12 08:41:07;;;;;;;16.42;14.45;;;;;;;22.38;68.95;102428.81;4992462;28;20419;-68
2022/07/12 08:43:36;;;;;;;24.25;16.27;;;;;;;22.58;69.69;102440.13;5001525;28;20073;-68
2022/07/12 08:46:06;;;;;;;19.77;15.45;;;;;;;22.63;65.22;102433.69;5001199;28;20062;-68
2022/07/12 08:48:33;;;;;;;20.73;14.55;;;;;;;22.71;64.50;102430.38;5004740;28;20025;-67
2022/07/12 08:51:06;;;;;;;19.40;15.13;;;;;;;22.79;68.53;102435.44;5003303;28;20029;-68
2022/07/12 08:53:32;;;;;;;16.60;13.00;;;;;;;22.89;68.85;102443.06;5004190;28;20664;-67
2022/07/12 08:55:58;;;;;;;21.00;17.25;;;;;;;22.98;64.59;102433.03;5004156;28;20026;-68
2022/07/12 08:58:23;;;;;;;21.98;15.60;;;;;;;23.12;64.30;102442.59;5004469;28;20054;-68
2022/07/12 09:00:48;;;;;;;21.77;17.58;;;;;;;23.14;61.98;102442.31;4987721;28;20113;-68
2022/07/12 09:03:14;;;;;;;19.60;15.75;;;;;;;23.18;64.41;102443.44;5003812;28;20026;-67
2022/07/12 09:05:53;;;;;;;20.48;16.35;;;;;;;23.15;62.75;102447.63;5005078;28;20029;-67
2022/07/12 09:08:32;;;;;;;20.20;15.45;;;;;;;23.16;63.47;102445.66;5003543;28;20034;-68
2022/07/12 09:11:00;;;;;;;19.10;16.55;;;;;;;23.11;63.68;102440.88;5003113;28;20328;-67
2022/07/12 09:13:52;;;;;;;21.17;16.48;;;;;;;23.10;64.00;102433.59;5004730;28;20408;-67
2022/07/12 09:16:23;;;;;;;19.73;16.05;;;;;;;23.09;61.77;102437.53;5001334;28;20033;-68
2022/07/12 09:18:49;;;;;;;18.48;13.55;;;;;;;23.26;62.71;102435.31;5003550;28;20049;-67
2022/07/12 09:21:29;;;;;;;18.92;15.20;;;;;;;23.56;61.97;102440.09;5003382;28;20030;-67
2022/07/12 09:23:56;;;;;;;18.00;13.63;;;;;;;23.65;61.79;102434.81;4997915;28;20034;-68
2022/07/12 09:26:23;;;;;;;19.70;15.77;;;;;;;23.74;58.76;102433.16;5001324;28;20025;-67
2022/07/12 09:28:50;;;;;;;16.92;13.52;;;;;;;24.03;60.31;102432.56;5003070;28;20034;-67
2022/07/12 09:31:15;;;;;;;18.42;15.15;;;;;;;24.18;57.64;102432.53;5002648;28;20022;-68
2022/07/12 09:36:24;;;;;;;16.17;12.88;;;;;;;25.02;58.56;102421.53;5004249;28;20088;-67
2022/07/12 09:38:54;;;;;;;22.38;14.35;;;;;;;26.03;54.48;102417.09;5001951;28;20050;-67
2022/07/12 09:41:23;;;;;;;19.98;14.85;;;;;;;27.28;49.06;102418.94;5003916;28;20365;-68
2022/07/12 09:43:49;;;;;;;19.63;16.00;;;;;;;28.29;45.32;102426.78;5001003;28;20485;-67
2022/07/12 09:46:16;;;;;;;16.50;13.95;;;;;;;28.59;45.36;102433.81;5004544;28;20149;-67
2022/07/12 09:48:42;;;;;;;16.88;14.05;;;;;;;29.60;43.30;102430.69;4992191;28;20031;-67
2022/07/12 09:51:09;;;;;;;19.60;12.80;;;;;;;29.61;43.96;102434.38;5000420;28;20045;-67
2022/07/12 09:53:47;;;;;;;17.30;12.83;;;;;;;30.66;41.51;102425.22;5002393;28;20026;-67
2022/07/12 09:56:19;;;;;;;15.30;12.48;;;;;;;32.18;39.99;102421.38;5003203;28;20049;-67
2022/07/12 09:58:54;;;;;;;16.15;12.02;;;;;;;33.47;36.53;102416.94;4995421;28;20026;-67
2022/07/12 10:01:20;;;;;;;16.30;11.25;;;;;;;33.54;33.88;102411.50;5001224;28;20034;-67
2022/07/12 10:03:48;;;;;;;13.55;10.45;;;;;;;34.25;33.39;102412.41;5001011;28;20033;-68
2022/07/12 10:06:20;;;;;;;12.95;9.43;;;;;;;35.70;33.91;102408.84;5027842;28;20033;-67
2022/07/12 10:08:45;;;;;;;13.65;8.52;;;;;;;36.29;30.70;102414.50;5003075;28;20145;-67
2022/07/12 10:11:13;;;;;;;10.63;7.70;;;;;;;36.50;29.18;102413.41;5001825;28;20133;-67
2022/07/12 10:13:38;;;;;;;10.05;6.97;;;;;;;36.45;30.36;102405.97;5003069;28;20569;-67
2022/07/12 10:16:05;;;;;;;8.05;6.18;;;;;;;35.87;31.49;102397.88;5002440;28;20121;-67
2022/07/12 10:18:30;;;;;;;8.20;5.32;;;;;;;35.17;32.22;102382.38;4999565;28;20035;-67
2022/07/12 10:20:56;;;;;;;7.60;5.18;;;;;;;34.75;31.81;102380.66;5003277;28;20111;-67
2022/07/12 10:23:36;;;;;;;14.02;11.27;;;;;;;34.06;34.03;102391.03;5003758;28;20600;-67
2022/07/12 10:26:25;;;;;;;10.77;8.95;;;;;;;34.38;34.40;102388.41;5001391;28;20022;-66
2022/07/12 10:28:59;;;;;;;8.30;5.03;;;;;;;34.89;34.66;102386.00;4996435;28;20119;-67
2022/07/12 10:31:28;;;;;;;9.13;5.38;;;;;;;35.35;33.63;102378.00;5003048;28;20038;-67
2022/07/12 10:34:21;;;;;;;7.50;4.60;;;;;;;36.32;33.64;102392.94;5004781;28;20034;-67
2022/07/12 10:36:55;;;;;;;8.65;6.60;;;;;;;35.36;31.86;102391.94;5002309;28;20149;-66
2022/07/12 10:39:25;;;;;;;9.35;5.28;;;;;;;35.65;29.76;102380.50;5004870;28;20492;-66
2022/07/12 10:42:14;;;;;;;11.05;8.05;;;;;;;34.42;32.32;102394.22;5003454;28;20131;-67
2022/07/12 10:44:44;;;;;;;12.20;6.63;;;;;;;32.75;32.54;102403.91;4984796;28;20081;-66
2022/07/12 10:47:12;;;;;;;8.95;6.70;;;;;;;32.17;33.86;102397.81;4997875;28;20113;-66
2022/07/12 10:49:46;;;;;;;7.30;4.97;;;;;;;31.67;38.35;102395.59;5006952;28;20121;-66
2022/07/12 10:52:11;;;;;;;7.78;5.25;;;;;;;31.26;37.97;102384.81;5008620;28;20143;-66
2022/07/12 10:54:41;;;;;;;9.80;5.33;;;;;;;31.10;40.06;102377.94;4992592;28;20529;-66
2022/07/12 10:57:07;;;;;;;9.77;7.00;;;;;;;30.28;38.19;102390.94;5001501;28;20492;-65
2022/07/12 10:59:34;;;;;;;9.80;6.35;;;;;;;29.41;40.30;102388.41;5006668;28;20045;-66
2022/07/12 11:02:00;;;;;;;9.50;5.90;;;;;;;29.43;40.64;102391.72;5005865;28;20034;-66
2022/07/12 11:04:27;;;;;;;8.70;6.35;;;;;;;29.53;46.58;102398.28;5007770;28;20439;-66
2022/07/12 11:06:55;;;;;;;7.72;5.05;;;;;;;29.78;44.61;102388.31;5006607;28;20061;-66
2022/07/12 11:09:21;;;;;;;6.90;5.35;;;;;;;29.79;42.79;102388.00;5005446;28;20034;-66
2022/07/12 11:11:49;;;;;;;9.57;7.55;;;;;;;29.50;40.83;102384.78;5006614;28;20030;-67
2022/07/12 11:14:26;;;;;;;10.15;7.47;;;;;;;29.11;41.75;102377.84;5007072;28;20058;-66
2022/07/12 11:16:53;;;;;;;10.77;6.63;;;;;;;29.13;41.93;102378.34;5005361;28;20040;-67
2022/07/12 11:19:26;;;;;;;10.05;7.45;;;;;;;29.26;42.25;102382.28;5004712;28;20048;-66